createdAt,value
2018-08-19T00:02:26.200Z,3.17
2018-08-19T00:05:06.964Z,3.27
2018-08-19T00:07:35.695Z,3.00
2018-08-19T00:10:05.679Z,2.67
2018-08-19T00:12:45.576Z,2.70
2018-08-19T00:15:15.601Z,3.23
2018-08-19T00:17:44.267Z,2.73
2018-08-19T00:20:14.571Z,2.37
2018-08-19T00:22:47.096Z,2.37
2018-08-19T00:25:26.783Z,2.50
2018-08-19T00:27:55.448Z,2.60
2018-08-19T00:30:27.924Z,2.50
2018-08-19T00:32:59.744Z,2.90
2018-08-19T00:35:29.083Z,2.53
2018-08-19T00:37:59.744Z,2.67
2018-08-19T00:40:29.341Z,2.87
2018-08-19T00:42:59.961Z,2.57
2018-08-19T00:45:29.347Z,2.93
2018-08-19T00:47:57.905Z,2.30
2018-08-19T00:50:30.960Z,2.60
2018-08-19T00:53:00.120Z,2.63
2018-08-19T00:55:36.793Z,2.80
2018-08-19T00:58:15.991Z,2.73
2018-08-19T01:00:44.833Z,3.20
2018-08-19T01:03:13.994Z,2.83
2018-08-19T01:05:46.775Z,2.50
2018-08-19T01:08:15.789Z,2.40
2018-08-19T01:10:46.872Z,2.80
2018-08-19T01:13:16.044Z,2.90
2018-08-19T01:15:46.191Z,2.83
2018-08-19T01:18:14.675Z,2.60
2018-08-19T01:20:43.902Z,2.77
2018-08-19T01:23:12.552Z,2.70
2018-08-19T01:25:40.990Z,2.67
2018-08-19T01:28:11.164Z,2.40
2018-08-19T01:30:39.795Z,3.03
2018-08-19T01:33:12.261Z,2.67
2018-08-19T01:35:43.360Z,3.00
2018-08-19T01:38:14.767Z,2.33
2018-08-19T01:40:43.763Z,2.50
2018-08-19T01:43:12.120Z,3.20
2018-08-19T01:45:42.580Z,2.70
2018-08-19T01:48:12.168Z,2.40
2018-08-19T01:50:42.856Z,2.77
2018-08-19T01:53:18.320Z,2.80
2018-08-19T01:55:47.443Z,2.70
2018-08-19T01:58:18.416Z,2.80
2018-08-19T02:00:48.324Z,2.80
2018-08-19T02:03:18.029Z,2.80
2018-08-19T02:05:47.371Z,2.63
2018-08-19T02:08:15.909Z,3.07
2018-08-19T02:10:44.616Z,3.10
2018-08-19T02:13:13.703Z,2.77
2018-08-19T02:15:42.717Z,2.97
2018-08-19T02:18:16.691Z,2.90
2018-08-19T02:20:46.636Z,2.80
2018-08-19T02:23:17.500Z,2.80
2018-08-19T02:25:48.063Z,2.93
2018-08-19T02:28:22.875Z,2.90
2018-08-19T02:31:00.175Z,2.97
2018-08-19T02:33:33.514Z,2.67
2018-08-19T02:36:08.557Z,3.27
2018-08-19T02:38:38.795Z,2.80
2018-08-19T02:41:07.589Z,2.40
2018-08-19T02:43:46.695Z,3.27
2018-08-19T02:46:15.042Z,2.80
2018-08-19T02:48:53.580Z,3.10
2018-08-19T02:51:23.571Z,3.13
2018-08-19T02:53:53.499Z,3.00
2018-08-19T02:56:22.281Z,2.87
2018-08-19T02:58:52.199Z,3.10
2018-08-19T03:01:20.614Z,2.70
2018-08-19T03:03:49.080Z,3.00
2018-08-19T03:06:19.349Z,2.90
2018-08-19T03:08:59.975Z,3.20
2018-08-19T03:11:30.032Z,3.00
2018-08-19T03:14:00.499Z,2.70
2018-08-19T03:16:29.566Z,3.10
2018-08-19T03:18:59.778Z,3.20
2018-08-19T03:21:29.950Z,3.07
2018-08-19T03:23:59.295Z,3.17
2018-08-19T03:26:32.519Z,3.10
2018-08-19T03:29:07.787Z,3.17
2018-08-19T03:31:36.756Z,3.10
2018-08-19T03:34:08.218Z,3.20
2018-08-19T03:36:38.527Z,3.20
2018-08-19T03:39:17.124Z,2.80
2018-08-19T03:41:47.076Z,2.70
2018-08-19T03:44:16.239Z,2.83
2018-08-19T03:46:44.560Z,3.13
2018-08-19T03:49:13.528Z,3.10
2018-08-19T03:51:42.096Z,3.40
2018-08-19T03:54:11.806Z,3.00
2018-08-19T03:56:41.621Z,3.00
2018-08-19T03:59:13.608Z,3.13
2018-08-19T04:01:43.851Z,3.20
2018-08-19T04:04:16.041Z,2.73
2018-08-19T04:06:46.137Z,3.10
2018-08-19T04:09:15.320Z,3.10
2018-08-19T04:11:43.767Z,3.43
2018-08-19T04:14:26.798Z,3.67
2018-08-19T04:16:57.552Z,3.37
2018-08-19T04:19:27.695Z,3.47
2018-08-19T04:22:01.255Z,3.90
2018-08-19T04:24:32.315Z,3.93
2018-08-19T04:27:07.238Z,3.30
2018-08-19T04:29:36.096Z,3.40
2018-08-19T04:32:07.644Z,3.87
2018-08-19T04:34:37.557Z,3.77
2018-08-19T04:37:07.579Z,3.03
2018-08-19T04:39:37.307Z,4.00
2018-08-19T04:42:07.546Z,4.17
2018-08-19T04:44:37.293Z,3.83
2018-08-19T04:47:20.128Z,3.60
2018-08-19T04:49:52.796Z,4.00
2018-08-19T04:52:24.357Z,3.70
2018-08-19T04:54:53.760Z,3.10
2018-08-19T04:57:22.543Z,3.63
2018-08-19T04:59:52.703Z,3.43
2018-08-19T05:02:22.098Z,3.97
2018-08-19T05:04:51.641Z,3.20
2018-08-19T05:07:21.377Z,3.40
2018-08-19T05:09:50.697Z,3.10
2018-08-19T05:12:19.853Z,3.57
2018-08-19T05:14:50.315Z,3.20
2018-08-19T05:17:18.982Z,2.93
2018-08-19T05:19:48.491Z,3.07
2018-08-19T05:22:16.847Z,3.20
2018-08-19T05:24:47.011Z,2.90
2018-08-19T05:27:18.172Z,2.77
2018-08-19T05:29:51.240Z,2.93
2018-08-19T05:32:20.835Z,3.97
2018-08-19T05:34:49.796Z,3.10
2018-08-19T05:37:19.624Z,4.00
2018-08-19T05:39:53.105Z,3.50
2018-08-19T05:42:24.091Z,3.30
2018-08-19T05:44:53.388Z,3.00
2018-08-19T05:47:23.929Z,3.13
2018-08-19T05:49:53.891Z,3.37
2018-08-19T05:52:25.031Z,3.20
2018-08-19T05:54:57.588Z,2.80
2018-08-19T05:57:27.044Z,3.60
2018-08-19T05:59:56.513Z,3.10
2018-08-19T06:02:31.276Z,3.57
2018-08-19T06:05:00.542Z,3.43
2018-08-19T06:07:30.871Z,3.40
2018-08-19T06:10:01.789Z,3.27
2018-08-19T06:12:30.764Z,2.80
2018-08-19T06:15:02.589Z,2.93
2018-08-19T06:17:31.469Z,3.10
2018-08-19T06:20:00.731Z,2.87
2018-08-19T06:22:34.556Z,3.33
2018-08-19T06:25:04.580Z,2.67
2018-08-19T06:27:42.655Z,2.77
2018-08-19T06:30:11.756Z,2.43
2018-08-19T06:32:41.650Z,2.57
2018-08-19T06:35:10.252Z,2.77
2018-08-19T06:37:39.845Z,2.57
2018-08-19T06:40:11.051Z,13.03
2018-08-19T06:42:40.365Z,7.63
2018-08-19T06:45:09.700Z,3.90
2018-08-19T06:47:40.507Z,2.60
2018-08-19T06:50:18.871Z,2.50
2018-08-19T06:52:47.856Z,12.87
2018-08-19T06:55:17.399Z,14.47
2018-08-19T06:57:46.124Z,13.40
2018-08-19T07:00:21.428Z,7.77
2018-08-19T07:02:49.756Z,2.47
2018-08-19T07:05:19.236Z,5.77
2018-08-19T07:07:48.617Z,8.07
2018-08-19T07:10:23.257Z,2.83
2018-08-19T07:12:56.153Z,2.70
2018-08-19T07:15:24.822Z,2.60
2018-08-19T07:17:55.116Z,2.70
2018-08-19T07:20:23.830Z,2.70
2018-08-19T07:22:52.705Z,2.70
2018-08-19T07:25:22.020Z,2.30
2018-08-19T07:27:50.562Z,2.57
2018-08-19T07:30:19.298Z,2.10
2018-08-19T07:32:48.104Z,2.83
2018-08-19T07:35:16.453Z,2.53
2018-08-19T07:37:46.164Z,2.70
2018-08-19T07:40:15.153Z,2.83
2018-08-19T07:42:43.498Z,2.47
2018-08-19T07:45:11.851Z,3.83
2018-08-19T07:47:40.237Z,2.70
2018-08-19T07:50:10.804Z,2.40
2018-08-19T07:52:39.610Z,2.43
2018-08-19T07:55:09.180Z,2.90
2018-08-19T07:57:41.772Z,2.83
2018-08-19T08:00:12.283Z,2.67
2018-08-19T08:02:40.733Z,2.67
2018-08-19T08:05:11.153Z,2.93
2018-08-19T08:07:47.876Z,2.60
2018-08-19T08:10:18.466Z,2.10
2018-08-19T08:12:54.320Z,2.40
2018-08-19T08:15:23.775Z,3.00
2018-08-19T08:17:53.088Z,2.63
2018-08-19T08:20:22.253Z,3.03
2018-08-19T08:22:50.629Z,2.47
2018-08-19T08:25:19.003Z,2.77
2018-08-19T08:27:47.648Z,2.90
2018-08-19T08:30:16.103Z,2.97
2018-08-19T08:32:46.712Z,2.87
2018-08-19T08:35:18.600Z,2.50
2018-08-19T08:37:48.261Z,3.07
2018-08-19T08:40:17.781Z,2.37
2018-08-19T08:42:47.084Z,2.23
2018-08-19T08:45:19.654Z,2.63
2018-08-19T08:47:48.412Z,2.53
2018-08-19T08:50:17.292Z,2.40
2018-08-19T08:52:46.343Z,2.33
2018-08-19T08:55:14.723Z,2.90
2018-08-19T08:57:44.515Z,2.90
2018-08-19T09:00:13.903Z,2.60
2018-08-19T09:02:43.033Z,2.43
2018-08-19T09:05:14.440Z,2.90
2018-08-19T09:07:43.003Z,2.80
2018-08-19T09:10:15.059Z,2.70
2018-08-19T09:12:56.295Z,3.00
2018-08-19T09:15:25.051Z,3.30
2018-08-19T09:17:55.492Z,3.10
2018-08-19T09:20:25.540Z,2.43
2018-08-19T09:22:54.569Z,2.75
2018-08-19T09:25:24.192Z,2.20
2018-08-19T09:27:53.656Z,2.40
2018-08-19T09:30:30.319Z,2.25
2018-08-19T09:33:00.985Z,2.10
2018-08-19T09:35:31.732Z,1.75
2018-08-19T09:38:05.733Z,2.10
2018-08-19T09:40:36.044Z,1.87
2018-08-19T09:43:07.599Z,1.75
2018-08-19T09:45:36.396Z,1.70
2018-08-19T09:48:07.048Z,1.70
2018-08-19T09:50:37.427Z,1.72
2018-08-19T09:53:07.823Z,1.70
2018-08-19T09:55:44.499Z,1.80
2018-08-19T09:58:19.923Z,1.77
2018-08-19T10:00:53.380Z,1.70
2018-08-19T10:03:24.980Z,1.50
2018-08-19T10:05:54.803Z,1.70
2018-08-19T10:08:26.715Z,1.50
2018-08-19T10:10:55.764Z,1.45
2018-08-19T10:13:24.392Z,1.60
2018-08-19T10:15:54.111Z,1.80
2018-08-19T10:18:23.551Z,1.72
2018-08-19T10:20:53.239Z,1.80
2018-08-19T10:23:25.632Z,1.67
2018-08-19T10:25:54.670Z,1.75
2018-08-19T10:28:25.468Z,1.40
2018-08-19T10:30:57.921Z,1.72
2018-08-19T10:33:27.374Z,1.60
2018-08-19T10:35:59.696Z,1.30
2018-08-19T10:38:28.742Z,1.65
2018-08-19T10:41:03.693Z,1.42
2018-08-19T10:43:32.943Z,1.57
2018-08-19T10:46:03.853Z,1.57
2018-08-19T10:48:32.996Z,1.90
2018-08-19T10:51:02.708Z,1.55
2018-08-19T10:53:32.397Z,1.42
2018-08-19T10:56:01.944Z,1.63
2018-08-19T10:58:31.364Z,1.50
2018-08-19T11:01:00.145Z,1.50
2018-08-19T11:03:29.776Z,1.20
2018-08-19T11:06:01.068Z,1.45
2018-08-19T11:08:30.360Z,1.20
2018-08-19T11:11:00.531Z,1.50
2018-08-19T11:13:31.506Z,1.50
2018-08-19T11:16:00.708Z,1.52
2018-08-19T11:18:36.933Z,1.25
2018-08-19T11:21:12.370Z,1.47
2018-08-19T11:23:43.021Z,1.27
2018-08-19T11:26:12.812Z,1.20
2018-08-19T11:28:52.354Z,1.40
2018-08-19T11:31:27.666Z,1.40
2018-08-19T11:33:57.989Z,1.35
2018-08-19T11:36:32.981Z,1.50
2018-08-19T11:39:04.463Z,1.27
2018-08-19T11:41:35.435Z,1.20
2018-08-19T11:44:07.990Z,1.40
2018-08-19T11:46:36.943Z,1.20
2018-08-19T11:49:12.940Z,1.20
2018-08-19T11:51:54.141Z,2.27
2018-08-19T11:54:25.792Z,2.40
2018-08-19T11:57:01.027Z,1.40
2018-08-19T11:59:49.411Z,1.75
2018-08-19T12:02:21.223Z,1.45
2018-08-19T12:04:50.816Z,1.22
2018-08-19T12:07:21.805Z,1.42
2018-08-19T12:09:57.627Z,1.70
2018-08-19T12:12:43.172Z,2.12
2018-08-19T12:15:12.619Z,1.72
2018-08-19T12:17:45.202Z,1.60
2018-08-19T12:20:18.488Z,1.30
2018-08-19T12:22:51.697Z,1.62
2018-08-19T12:25:22.528Z,1.98
2018-08-19T12:27:52.304Z,1.70
2018-08-19T12:30:21.286Z,1.42
2018-08-19T12:32:51.457Z,1.60
2018-08-19T12:35:21.679Z,1.60
2018-08-19T12:37:50.968Z,1.87
2018-08-19T12:40:20.713Z,2.12
2018-08-19T12:42:55.792Z,1.95
2018-08-19T12:45:25.957Z,2.20
2018-08-19T12:47:55.944Z,2.08
2018-08-19T12:50:25.600Z,2.30
2018-08-19T12:52:54.667Z,2.37
2018-08-19T12:55:24.374Z,2.35
2018-08-19T12:58:02.425Z,2.55
2018-08-19T13:00:31.575Z,2.60
2018-08-19T13:03:02.788Z,2.52
2018-08-19T13:05:34.244Z,2.25
2018-08-19T13:08:04.668Z,2.67
2018-08-19T13:10:39.843Z,2.80
2018-08-19T13:13:09.268Z,2.75
2018-08-19T13:15:40.346Z,3.33
2018-08-19T13:18:10.292Z,2.92
2018-08-19T13:20:41.797Z,2.90
2018-08-19T13:23:10.836Z,2.90
2018-08-19T13:25:47.944Z,2.92
2018-08-19T13:28:17.205Z,3.12
2018-08-19T13:30:47.189Z,2.72
2018-08-19T13:33:17.908Z,3.55
2018-08-19T13:35:47.025Z,2.72
2018-08-19T13:38:30.861Z,3.17
2018-08-19T13:41:00.200Z,3.30
2018-08-19T13:43:29.534Z,3.42
2018-08-19T13:45:59.640Z,2.72
2018-08-19T13:48:28.672Z,3.15
2018-08-19T13:50:58.056Z,2.83
2018-08-19T13:53:29.161Z,2.90
2018-08-19T13:55:58.464Z,2.58
2018-08-19T13:58:28.725Z,2.90
2018-08-19T14:01:00.119Z,2.83
2018-08-19T14:03:30.986Z,3.00
2018-08-19T14:06:03.066Z,3.30
2018-08-19T14:08:34.648Z,2.97
2018-08-19T14:11:06.224Z,2.93
2018-08-19T14:13:36.014Z,3.17
2018-08-19T14:16:06.260Z,3.00
2018-08-19T14:18:36.632Z,2.80
2018-08-19T14:21:07.058Z,2.97
2018-08-19T14:23:38.843Z,3.00
2018-08-19T14:26:12.588Z,3.27
2018-08-19T14:28:48.180Z,3.03
2018-08-19T14:31:17.369Z,2.97
2018-08-19T14:33:47.598Z,2.93
2018-08-19T14:36:16.956Z,2.97
2018-08-19T14:38:46.664Z,2.87
2018-08-19T14:41:16.015Z,2.93
2018-08-19T14:44:01.189Z,3.03
2018-08-19T14:46:35.998Z,2.97
2018-08-19T14:49:06.323Z,2.80
2018-08-19T14:51:47.263Z,2.87
2018-08-19T14:54:18.044Z,2.80
2018-08-19T14:56:50.548Z,2.63
2018-08-19T14:59:19.744Z,2.90
2018-08-19T15:01:49.671Z,3.03
2018-08-19T15:04:20.155Z,2.80
2018-08-19T15:06:50.140Z,2.87
2018-08-19T15:09:32.568Z,2.60
2018-08-19T15:12:17.225Z,2.90
2018-08-19T15:14:50.725Z,2.90
2018-08-19T15:17:22.001Z,2.57
2018-08-19T15:19:57.986Z,2.87
2018-08-19T15:22:27.998Z,2.73
2018-08-19T15:25:00.295Z,2.77
2018-08-19T15:27:29.728Z,2.93
2018-08-19T15:30:00.913Z,2.90
2018-08-19T15:32:32.143Z,3.20
2018-08-19T15:35:02.096Z,2.93
2018-08-19T15:37:38.212Z,2.67
2018-08-19T15:40:07.683Z,3.00
2018-08-19T15:42:38.073Z,3.13
2018-08-19T15:45:08.189Z,2.63
2018-08-19T15:47:40.153Z,2.70
2018-08-19T15:50:19.162Z,3.27
2018-08-19T15:52:49.704Z,3.17
2018-08-19T15:55:19.840Z,3.07
2018-08-19T15:57:48.407Z,3.10
2018-08-19T16:00:17.568Z,3.53
2018-08-19T16:02:49.237Z,3.60
2018-08-19T16:05:20.636Z,3.37
2018-08-19T16:07:54.752Z,3.20
2018-08-19T16:10:28.812Z,3.40
2018-08-19T16:12:59.147Z,3.50
2018-08-19T16:15:32.422Z,3.40
2018-08-19T16:18:04.338Z,3.67
2018-08-19T16:20:35.477Z,3.53
2018-08-19T16:23:06.046Z,3.20
2018-08-19T16:25:38.200Z,3.27
2018-08-19T16:28:08.700Z,3.70
2018-08-19T16:30:38.433Z,3.43
2018-08-19T16:33:08.621Z,3.90
2018-08-19T16:35:37.485Z,3.43
2018-08-19T16:38:08.216Z,3.90
2018-08-19T16:40:37.239Z,3.40
2018-08-19T16:43:05.878Z,3.50
2018-08-19T16:45:36.022Z,3.30
2018-08-19T16:48:09.566Z,3.37
2018-08-19T16:50:38.616Z,3.00
2018-08-19T16:53:10.012Z,3.27
2018-08-19T16:55:40.099Z,3.70
2018-08-19T16:58:09.096Z,3.90
2018-08-19T17:00:41.159Z,4.10
2018-08-19T17:03:28.628Z,3.93
2018-08-19T17:06:00.449Z,3.70
2018-08-19T17:08:30.783Z,3.80
2018-08-19T17:11:01.030Z,3.37
2018-08-19T17:13:29.953Z,3.27
2018-08-19T17:16:02.519Z,4.03
2018-08-19T17:18:37.091Z,4.07
2018-08-19T17:21:05.839Z,3.70
2018-08-19T17:23:41.196Z,3.77
2018-08-19T17:26:16.616Z,4.10
2018-08-19T17:28:46.576Z,3.87
2018-08-19T17:31:18.020Z,3.73
2018-08-19T17:36:50.499Z,3.83
2018-08-19T17:39:24.207Z,4.43
2018-08-19T17:41:54.528Z,4.00
2018-08-19T17:44:23.852Z,4.00
2018-08-19T17:46:55.477Z,4.07
2018-08-19T17:49:26.828Z,4.47
2018-08-19T17:52:02.779Z,4.13
2018-08-19T17:54:35.340Z,4.00
2018-08-19T17:57:04.209Z,4.00
2018-08-19T17:59:38.380Z,4.00
2018-08-19T18:02:09.020Z,4.13
2018-08-19T18:04:45.464Z,4.63
2018-08-19T18:07:19.401Z,4.03
2018-08-19T18:09:55.808Z,4.70
2018-08-19T18:12:29.992Z,4.30
2018-08-19T18:15:00.843Z,3.80
2018-08-19T18:17:33.949Z,4.00
2018-08-19T18:20:26.105Z,3.90
2018-08-19T18:22:58.500Z,4.40
2018-08-19T18:25:29.393Z,4.00
2018-08-19T18:28:00.388Z,4.00
2018-08-19T18:30:30.177Z,3.90
2018-08-19T18:33:03.651Z,5.50
2018-08-19T18:35:33.909Z,4.90
2018-08-19T18:38:03.150Z,5.27
2018-08-19T18:40:36.180Z,3.97
2018-08-19T18:43:06.040Z,4.97
2018-08-19T18:45:38.173Z,4.63
2018-08-19T18:48:08.465Z,4.83
2018-08-19T18:50:37.688Z,4.90
2018-08-19T18:53:08.264Z,4.90
2018-08-19T18:55:42.462Z,10.63
2018-08-19T18:58:12.921Z,4.13
2018-08-19T19:00:49.213Z,4.97
2018-08-19T19:03:18.433Z,4.60
2018-08-19T19:05:49.152Z,5.40
2018-08-19T19:08:18.844Z,4.67
2018-08-19T19:10:58.365Z,4.60
2018-08-19T19:13:28.672Z,4.17
2018-08-19T19:15:58.008Z,4.40
2018-08-19T19:18:26.978Z,4.47
2018-08-19T19:21:05.515Z,4.77
2018-08-19T19:23:38.304Z,4.60
2018-08-19T19:26:08.656Z,4.13
2018-08-19T19:28:37.603Z,5.37
2018-08-19T19:31:11.791Z,4.37
2018-08-19T19:33:41.020Z,4.70
2018-08-19T19:36:16.011Z,4.70
2018-08-19T19:38:49.137Z,4.90
2018-08-19T19:41:23.967Z,4.70
2018-08-19T19:43:52.311Z,4.87
2018-08-19T19:46:20.868Z,5.03
2018-08-19T19:48:53.579Z,4.80
2018-08-19T19:51:23.533Z,5.30
2018-08-19T19:53:53.607Z,5.27
2018-08-19T19:56:22.276Z,4.93
2018-08-19T19:58:51.796Z,4.77
2018-08-19T20:01:22.248Z,4.23
2018-08-19T20:03:53.996Z,4.57
2018-08-19T20:06:25.090Z,4.87
2018-08-19T20:08:53.711Z,4.53
2018-08-19T20:11:30.063Z,4.30
2018-08-19T20:14:03.159Z,4.77
2018-08-19T20:16:31.492Z,4.53
2018-08-19T20:19:01.947Z,4.63
2018-08-19T20:21:34.446Z,4.63
2018-08-19T20:24:04.408Z,4.50
2018-08-19T20:26:33.182Z,4.47
2018-08-19T20:29:03.875Z,5.50
2018-08-19T20:31:33.388Z,4.93
2018-08-19T20:34:04.464Z,5.33
2018-08-19T20:36:33.112Z,5.10
2018-08-19T20:39:05.493Z,5.37
2018-08-19T20:41:34.264Z,4.90
2018-08-19T20:44:02.956Z,5.03
2018-08-19T20:46:32.827Z,5.03
2018-08-19T20:49:01.865Z,5.13
2018-08-19T20:51:30.204Z,5.00
2018-08-19T20:54:01.485Z,5.20
2018-08-19T20:56:30.767Z,4.83
2018-08-19T21:25:06.496Z,5.13
2018-08-19T21:27:36.041Z,5.50
2018-08-19T21:30:05.400Z,5.83
2018-08-19T21:32:34.720Z,5.10
2018-08-19T21:35:04.683Z,4.93
2018-08-19T21:37:36.480Z,5.20
2018-08-19T21:40:06.163Z,5.93
2018-08-19T21:42:54.399Z,5.40
2018-08-19T21:45:25.012Z,4.80
2018-08-19T21:47:55.997Z,4.97
2018-08-19T21:50:25.217Z,5.60
2018-08-19T21:53:08.585Z,5.10
2018-08-19T21:55:39.256Z,5.03
2018-08-19T21:58:10.516Z,5.77
2018-08-19T22:00:45.316Z,5.63
2018-08-19T22:03:21.081Z,5.60
2018-08-19T22:05:51.112Z,5.77
2018-08-19T22:08:23.416Z,5.30
2018-08-19T22:10:55.455Z,5.50
2018-08-19T22:13:24.424Z,5.87
2018-08-19T22:15:53.203Z,5.30
2018-08-19T22:18:22.709Z,5.40
2018-08-19T22:21:24.404Z,5.17
2018-08-19T22:23:56.262Z,5.43
2018-08-19T22:26:24.936Z,5.00
2018-08-19T22:29:08.942Z,5.20
2018-08-19T22:31:37.364Z,5.43
2018-08-19T22:34:05.729Z,4.90
2018-08-19T22:36:34.133Z,5.20
2018-08-19T22:39:03.135Z,5.10
2018-08-19T22:41:33.454Z,5.83
2018-08-19T22:44:01.956Z,5.50
2018-08-19T22:46:31.403Z,5.60
2018-08-19T22:48:59.832Z,5.23
2018-08-19T22:51:33.092Z,5.00
2018-08-19T22:54:02.190Z,5.00
2018-08-19T22:56:31.279Z,5.80
2018-08-19T22:59:00.165Z,5.70
2018-08-19T23:01:36.128Z,5.23
2018-08-19T23:04:07.408Z,5.40
2018-08-19T23:06:37.036Z,5.77
2018-08-19T23:09:07.968Z,5.33
2018-08-19T23:11:44.851Z,5.53
2018-08-19T23:14:25.895Z,5.70
2018-08-19T23:16:55.540Z,5.37
2018-08-19T23:19:26.209Z,5.47
2018-08-19T23:21:54.928Z,6.07
2018-08-19T23:24:24.589Z,5.40
2018-08-19T23:26:54.195Z,6.00
2018-08-19T23:29:26.574Z,5.47
2018-08-19T23:31:56.300Z,5.60
2018-08-19T23:34:25.428Z,5.80
2018-08-19T23:36:54.471Z,5.33
2018-08-19T23:39:23.847Z,5.40
2018-08-19T23:41:52.604Z,5.70
2018-08-19T23:44:21.953Z,5.57
2018-08-19T23:46:53.583Z,5.90
2018-08-19T23:49:22.987Z,5.27
2018-08-19T23:51:55.945Z,5.40
2018-08-19T23:54:26.261Z,5.53
2018-08-19T23:56:59.839Z,5.77
2018-08-19T23:59:39.197Z,5.30
